sensor_id;sensor_type;location;lat;lon;timestamp;P1;durP1;ratioP1;P2;durP2;ratioP2
8074;SDS011;4080;42.676;23.372;2022-08-19T00:01:24;7.83;;;7.10;;
8074;SDS011;4080;42.676;23.372;2022-08-19T00:03:52;8.37;;;7.53;;
8074;SDS011;4080;42.676;23.372;2022-08-19T00:06:19;7.80;;;6.90;;
8074;SDS011;4080;42.676;23.372;2022-08-19T00:08:46;8.00;;;7.20;;
8074;SDS011;4080;42.676;23.372;2022-08-19T00:11:12;7.73;;;6.90;;
8074;SDS011;4080;42.676;23.372;2022-08-19T00:13:41;7.70;;;7.00;;
8074;SDS011;4080;42.676;23.372;2022-08-19T00:16:07;8.60;;;6.97;;
8074;SDS011;4080;42.676;23.372;2022-08-19T00:18:34;9.13;;;6.93;;
8074;SDS011;4080;42.676;23.372;2022-08-19T00:21:01;8.83;;;6.73;;
8074;SDS011;4080;42.676;23.372;2022-08-19T00:23:34;7.97;;;6.50;;
8074;SDS011;4080;42.676;23.372;2022-08-19T00:26:02;8.50;;;7.03;;
8074;SDS011;4080;42.676;23.372;2022-08-19T00:28:29;8.77;;;7.10;;
8074;SDS011;4080;42.676;23.372;2022-08-19T00:30:57;8.40;;;7.07;;
8074;SDS011;4080;42.676;23.372;2022-08-19T00:33:24;8.10;;;7.30;;
8074;SDS011;4080;42.676;23.372;2022-08-19T00:35:51;7.83;;;6.93;;
8074;SDS011;4080;42.676;23.372;2022-08-19T00:38:18;10.50;;;8.70;;
8074;SDS011;4080;42.676;23.372;2022-08-19T00:40:47;8.83;;;7.70;;
8074;SDS011;4080;42.676;23.372;2022-08-19T00:43:18;14.93;;;8.90;;
8074;SDS011;4080;42.676;23.372;2022-08-19T00:45:46;10.77;;;8.30;;
8074;SDS011;4080;42.676;23.372;2022-08-19T00:48:14;11.67;;;8.13;;
8074;SDS011;4080;42.676;23.372;2022-08-19T00:50:41;11.40;;;8.47;;
8074;SDS011;4080;42.676;23.372;2022-08-19T00:53:09;13.63;;;8.00;;
8074;SDS011;4080;42.676;23.372;2022-08-19T00:55:40;9.00;;;8.10;;
8074;SDS011;4080;42.676;23.372;2022-08-19T00:58:15;11.33;;;7.87;;
8074;SDS011;4080;42.676;23.372;2022-08-19T01:00:44;10.77;;;7.80;;
8074;SDS011;4080;42.676;23.372;2022-08-19T01:03:12;15.60;;;8.43;;
8074;SDS011;4080;42.676;23.372;2022-08-19T01:05:43;10.97;;;8.27;;
8074;SDS011;4080;42.676;23.372;2022-08-19T01:08:11;11.10;;;7.93;;
8074;SDS011;4080;42.676;23.372;2022-08-19T01:10:41;10.73;;;8.07;;
8074;SDS011;4080;42.676;23.372;2022-08-19T01:13:11;11.73;;;7.97;;
8074;SDS011;4080;42.676;23.372;2022-08-19T01:15:41;9.03;;;8.13;;
8074;SDS011;4080;42.676;23.372;2022-08-19T01:18:11;9.07;;;7.63;;
8074;SDS011;4080;42.676;23.372;2022-08-19T01:20:42;10.73;;;8.00;;
8074;SDS011;4080;42.676;23.372;2022-08-19T01:23:10;11.10;;;8.40;;
8074;SDS011;4080;42.676;23.372;2022-08-19T01:25:39;10.87;;;7.40;;
8074;SDS011;4080;42.676;23.372;2022-08-19T01:28:14;8.23;;;7.47;;
8074;SDS011;4080;42.676;23.372;2022-08-19T01:30:43;11.83;;;8.43;;
8074;SDS011;4080;42.676;23.372;2022-08-19T01:33:11;8.43;;;7.63;;
8074;SDS011;4080;42.676;23.372;2022-08-19T01:35:38;9.67;;;7.90;;
8074;SDS011;4080;42.676;23.372;2022-08-19T01:38:06;11.50;;;8.50;;
8074;SDS011;4080;42.676;23.372;2022-08-19T01:40:38;8.43;;;7.57;;
8074;SDS011;4080;42.676;23.372;2022-08-19T01:43:07;10.20;;;7.83;;
8074;SDS011;4080;42.676;23.372;2022-08-19T01:45:34;9.07;;;8.17;;
8074;SDS011;4080;42.676;23.372;2022-08-19T01:48:03;8.73;;;7.83;;
8074;SDS011;4080;42.676;23.372;2022-08-19T01:50:30;10.43;;;7.70;;
8074;SDS011;4080;42.676;23.372;2022-08-19T01:52:59;11.63;;;7.60;;
8074;SDS011;4080;42.676;23.372;2022-08-19T01:55:26;10.13;;;8.20;;
8074;SDS011;4080;42.676;23.372;2022-08-19T01:57:55;8.77;;;7.90;;
8074;SDS011;4080;42.676;23.372;2022-08-19T02:00:26;9.43;;;7.77;;
8074;SDS011;4080;42.676;23.372;2022-08-19T02:02:55;9.63;;;7.27;;
8074;SDS011;4080;42.676;23.372;2022-08-19T02:05:23;8.40;;;7.50;;
8074;SDS011;4080;42.676;23.372;2022-08-19T02:07:49;8.27;;;7.47;;
8074;SDS011;4080;42.676;23.372;2022-08-19T02:10:20;8.67;;;7.60;;
8074;SDS011;4080;42.676;23.372;2022-08-19T02:12:48;9.97;;;7.00;;
8074;SDS011;4080;42.676;23.372;2022-08-19T02:15:17;8.83;;;7.37;;
8074;SDS011;4080;42.676;23.372;2022-08-19T02:17:45;10.23;;;8.13;;
8074;SDS011;4080;42.676;23.372;2022-08-19T02:20:12;8.50;;;7.60;;
8074;SDS011;4080;42.676;23.372;2022-08-19T02:22:39;8.33;;;7.50;;
8074;SDS011;4080;42.676;23.372;2022-08-19T02:25:07;9.40;;;7.43;;
8074;SDS011;4080;42.676;23.372;2022-08-19T02:27:35;8.40;;;7.67;;
8074;SDS011;4080;42.676;23.372;2022-08-19T02:30:03;9.93;;;7.40;;
8074;SDS011;4080;42.676;23.372;2022-08-19T02:32:32;9.00;;;8.00;;
8074;SDS011;4080;42.676;23.372;2022-08-19T02:34:59;10.30;;;7.77;;
8074;SDS011;4080;42.676;23.372;2022-08-19T02:37:26;8.90;;;8.10;;
8074;SDS011;4080;42.676;23.372;2022-08-19T02:40:10;8.50;;;7.70;;
8074;SDS011;4080;42.676;23.372;2022-08-19T02:42:37;10.33;;;7.30;;
8074;SDS011;4080;42.676;23.372;2022-08-19T02:45:06;9.47;;;8.10;;
8074;SDS011;4080;42.676;23.372;2022-08-19T02:47:34;8.50;;;7.73;;
8074;SDS011;4080;42.676;23.372;2022-08-19T02:50:01;10.63;;;8.17;;
8074;SDS011;4080;42.676;23.372;2022-08-19T02:52:29;10.17;;;8.00;;
8074;SDS011;4080;42.676;23.372;2022-08-19T02:54:56;9.30;;;8.07;;
8074;SDS011;4080;42.676;23.372;2022-08-19T02:57:22;9.77;;;7.83;;
8074;SDS011;4080;42.676;23.372;2022-08-19T02:59:49;9.07;;;8.17;;
8074;SDS011;4080;42.676;23.372;2022-08-19T03:02:16;12.57;;;7.73;;
8074;SDS011;4080;42.676;23.372;2022-08-19T03:04:44;10.00;;;8.03;;
8074;SDS011;4080;42.676;23.372;2022-08-19T03:07:12;10.10;;;7.83;;
8074;SDS011;4080;42.676;23.372;2022-08-19T03:09:40;11.47;;;8.40;;
8074;SDS011;4080;42.676;23.372;2022-08-19T03:12:07;11.73;;;8.23;;
8074;SDS011;4080;42.676;23.372;2022-08-19T03:14:34;10.57;;;8.33;;
8074;SDS011;4080;42.676;23.372;2022-08-19T03:17:02;12.70;;;8.63;;
8074;SDS011;4080;42.676;23.372;2022-08-19T03:19:30;10.10;;;8.60;;
8074;SDS011;4080;42.676;23.372;2022-08-19T03:21:58;12.53;;;9.47;;
8074;SDS011;4080;42.676;23.372;2022-08-19T03:24:25;12.33;;;10.00;;
8074;SDS011;4080;42.676;23.372;2022-08-19T03:26:53;10.60;;;8.30;;
8074;SDS011;4080;42.676;23.372;2022-08-19T03:29:22;11.07;;;9.07;;
8074;SDS011;4080;42.676;23.372;2022-08-19T03:31:50;13.37;;;9.00;;
8074;SDS011;4080;42.676;23.372;2022-08-19T03:34:19;11.93;;;8.30;;
8074;SDS011;4080;42.676;23.372;2022-08-19T03:36:47;8.70;;;7.80;;
8074;SDS011;4080;42.676;23.372;2022-08-19T03:39:16;11.03;;;8.43;;
8074;SDS011;4080;42.676;23.372;2022-08-19T03:41:44;11.57;;;8.33;;
8074;SDS011;4080;42.676;23.372;2022-08-19T03:44:12;9.80;;;7.80;;
8074;SDS011;4080;42.676;23.372;2022-08-19T03:46:39;13.87;;;8.17;;
8074;SDS011;4080;42.676;23.372;2022-08-19T03:49:06;9.93;;;8.17;;
8074;SDS011;4080;42.676;23.372;2022-08-19T03:51:35;11.17;;;7.67;;
8074;SDS011;4080;42.676;23.372;2022-08-19T03:54:05;9.87;;;7.73;;
8074;SDS011;4080;42.676;23.372;2022-08-19T03:56:37;9.73;;;7.47;;
8074;SDS011;4080;42.676;23.372;2022-08-19T03:59:06;8.83;;;7.93;;
8074;SDS011;4080;42.676;23.372;2022-08-19T04:01:34;8.63;;;7.77;;
8074;SDS011;4080;42.676;23.372;2022-08-19T04:04:01;10.17;;;8.47;;
8074;SDS011;4080;42.676;23.372;2022-08-19T04:06:30;9.73;;;7.60;;
8074;SDS011;4080;42.676;23.372;2022-08-19T04:08:59;10.37;;;8.47;;
8074;SDS011;4080;42.676;23.372;2022-08-19T04:11:29;9.13;;;8.20;;
8074;SDS011;4080;42.676;23.372;2022-08-19T04:13:59;14.80;;;9.13;;
8074;SDS011;4080;42.676;23.372;2022-08-19T04:16:26;14.47;;;8.77;;
8074;SDS011;4080;42.676;23.372;2022-08-19T04:18:54;9.43;;;8.33;;
8074;SDS011;4080;42.676;23.372;2022-08-19T04:21:23;11.40;;;8.80;;
8074;SDS011;4080;42.676;23.372;2022-08-19T04:23:51;9.50;;;8.30;;
8074;SDS011;4080;42.676;23.372;2022-08-19T04:26:20;10.50;;;8.03;;
8074;SDS011;4080;42.676;23.372;2022-08-19T04:28:48;10.20;;;9.00;;
8074;SDS011;4080;42.676;23.372;2022-08-19T04:31:19;12.93;;;8.73;;
8074;SDS011;4080;42.676;23.372;2022-08-19T04:33:47;11.33;;;8.60;;
8074;SDS011;4080;42.676;23.372;2022-08-19T04:36:17;17.13;;;9.87;;
8074;SDS011;4080;42.676;23.372;2022-08-19T04:38:45;14.63;;;10.40;;
8074;SDS011;4080;42.676;23.372;2022-08-19T04:41:12;15.53;;;8.97;;
8074;SDS011;4080;42.676;23.372;2022-08-19T04:43:57;13.53;;;10.40;;
8074;SDS011;4080;42.676;23.372;2022-08-19T04:46:25;14.57;;;9.97;;
8074;SDS011;4080;42.676;23.372;2022-08-19T04:48:55;13.47;;;10.03;;
8074;SDS011;4080;42.676;23.372;2022-08-19T04:51:22;13.00;;;9.43;;
8074;SDS011;4080;42.676;23.372;2022-08-19T04:53:49;19.67;;;10.57;;
8074;SDS011;4080;42.676;23.372;2022-08-19T04:56:18;12.97;;;10.03;;
8074;SDS011;4080;42.676;23.372;2022-08-19T04:58:47;14.73;;;9.90;;
8074;SDS011;4080;42.676;23.372;2022-08-19T05:01:17;13.63;;;10.27;;
8074;SDS011;4080;42.676;23.372;2022-08-19T05:03:46;17.63;;;10.80;;
8074;SDS011;4080;42.676;23.372;2022-08-19T05:06:14;17.57;;;10.13;;
8074;SDS011;4080;42.676;23.372;2022-08-19T05:08:43;13.47;;;10.30;;
8074;SDS011;4080;42.676;23.372;2022-08-19T05:11:12;16.97;;;10.77;;
8074;SDS011;4080;42.676;23.372;2022-08-19T05:13:41;14.07;;;10.70;;
8074;SDS011;4080;42.676;23.372;2022-08-19T05:16:08;12.27;;;10.00;;
8074;SDS011;4080;42.676;23.372;2022-08-19T05:18:36;10.93;;;9.90;;
8074;SDS011;4080;42.676;23.372;2022-08-19T05:21:23;12.27;;;9.53;;
8074;SDS011;4080;42.676;23.372;2022-08-19T05:24:07;12.87;;;9.63;;
8074;SDS011;4080;42.676;23.372;2022-08-19T05:26:34;13.63;;;9.33;;
8074;SDS011;4080;42.676;23.372;2022-08-19T05:29:01;12.37;;;9.80;;
8074;SDS011;4080;42.676;23.372;2022-08-19T05:31:29;11.43;;;9.40;;
8074;SDS011;4080;42.676;23.372;2022-08-19T05:33:56;14.33;;;9.50;;
8074;SDS011;4080;42.676;23.372;2022-08-19T05:36:25;10.70;;;9.60;;
8074;SDS011;4080;42.676;23.372;2022-08-19T05:38:52;11.93;;;9.50;;
8074;SDS011;4080;42.676;23.372;2022-08-19T05:41:20;12.27;;;9.83;;
8074;SDS011;4080;42.676;23.372;2022-08-19T05:43:48;15.10;;;9.60;;
8074;SDS011;4080;42.676;23.372;2022-08-19T05:46:16;13.70;;;10.10;;
8074;SDS011;4080;42.676;23.372;2022-08-19T05:48:44;15.20;;;9.17;;
8074;SDS011;4080;42.676;23.372;2022-08-19T05:51:12;14.10;;;9.13;;
8074;SDS011;4080;42.676;23.372;2022-08-19T05:53:41;12.40;;;9.67;;
8074;SDS011;4080;42.676;23.372;2022-08-19T05:56:10;9.70;;;8.67;;
8074;SDS011;4080;42.676;23.372;2022-08-19T05:58:39;20.60;;;9.20;;
8074;SDS011;4080;42.676;23.372;2022-08-19T06:01:09;11.90;;;9.20;;
8074;SDS011;4080;42.676;23.372;2022-08-19T06:03:37;13.70;;;9.37;;
8074;SDS011;4080;42.676;23.372;2022-08-19T06:06:04;15.03;;;8.30;;
8074;SDS011;4080;42.676;23.372;2022-08-19T06:08:33;13.03;;;8.90;;
8074;SDS011;4080;42.676;23.372;2022-08-19T06:11:16;13.33;;;8.13;;
8074;SDS011;4080;42.676;23.372;2022-08-19T06:13:46;12.43;;;10.50;;
8074;SDS011;4080;42.676;23.372;2022-08-19T06:16:17;10.77;;;9.63;;
8074;SDS011;4080;42.676;23.372;2022-08-19T06:18:48;12.50;;;10.73;;
8074;SDS011;4080;42.676;23.372;2022-08-19T06:21:18;12.13;;;10.80;;
8074;SDS011;4080;42.676;23.372;2022-08-19T06:23:45;12.33;;;10.27;;
8074;SDS011;4080;42.676;23.372;2022-08-19T06:26:13;10.77;;;9.20;;
8074;SDS011;4080;42.676;23.372;2022-08-19T06:28:42;10.73;;;9.00;;
8074;SDS011;4080;42.676;23.372;2022-08-19T06:31:11;19.93;;;9.27;;
8074;SDS011;4080;42.676;23.372;2022-08-19T06:33:40;11.83;;;9.00;;
8074;SDS011;4080;42.676;23.372;2022-08-19T06:36:07;11.47;;;8.03;;
8074;SDS011;4080;42.676;23.372;2022-08-19T06:38:34;15.27;;;8.97;;
8074;SDS011;4080;42.676;23.372;2022-08-19T06:41:02;10.43;;;8.33;;
8074;SDS011;4080;42.676;23.372;2022-08-19T06:43:29;9.83;;;8.77;;
8074;SDS011;4080;42.676;23.372;2022-08-19T06:45:57;11.43;;;9.40;;
8074;SDS011;4080;42.676;23.372;2022-08-19T06:48:26;11.87;;;8.93;;
8074;SDS011;4080;42.676;23.372;2022-08-19T06:50:52;11.00;;;8.87;;
8074;SDS011;4080;42.676;23.372;2022-08-19T06:53:19;11.10;;;7.80;;
8074;SDS011;4080;42.676;23.372;2022-08-19T06:55:46;15.47;;;10.23;;
8074;SDS011;4080;42.676;23.372;2022-08-19T06:58:13;9.77;;;8.10;;
8074;SDS011;4080;42.676;23.372;2022-08-19T07:00:40;10.67;;;8.70;;
8074;SDS011;4080;42.676;23.372;2022-08-19T07:03:08;10.17;;;8.43;;
8074;SDS011;4080;42.676;23.372;2022-08-19T07:05:39;10.00;;;8.67;;
8074;SDS011;4080;42.676;23.372;2022-08-19T07:08:06;12.57;;;8.33;;
8074;SDS011;4080;42.676;23.372;2022-08-19T07:10:34;14.43;;;8.17;;
8074;SDS011;4080;42.676;23.372;2022-08-19T07:13:01;10.77;;;8.17;;
8074;SDS011;4080;42.676;23.372;2022-08-19T07:15:28;8.67;;;7.77;;
8074;SDS011;4080;42.676;23.372;2022-08-19T07:17:55;9.63;;;7.77;;
8074;SDS011;4080;42.676;23.372;2022-08-19T07:23:09;16.50;;;8.73;;
8074;SDS011;4080;42.676;23.372;2022-08-19T07:25:36;8.90;;;8.00;;
8074;SDS011;4080;42.676;23.372;2022-08-19T07:28:04;16.53;;;8.87;;
8074;SDS011;4080;42.676;23.372;2022-08-19T07:30:32;14.07;;;8.17;;
8074;SDS011;4080;42.676;23.372;2022-08-19T07:33:01;8.20;;;7.33;;
8074;SDS011;4080;42.676;23.372;2022-08-19T07:35:28;10.63;;;7.57;;
8074;SDS011;4080;42.676;23.372;2022-08-19T07:37:58;11.27;;;7.30;;
8074;SDS011;4080;42.676;23.372;2022-08-19T07:40:27;12.87;;;8.03;;
8074;SDS011;4080;42.676;23.372;2022-08-19T07:42:54;8.67;;;7.63;;
8074;SDS011;4080;42.676;23.372;2022-08-19T07:45:21;11.07;;;8.20;;
8074;SDS011;4080;42.676;23.372;2022-08-19T07:47:48;11.80;;;8.30;;
8074;SDS011;4080;42.676;23.372;2022-08-19T07:50:15;11.27;;;7.93;;
8074;SDS011;4080;42.676;23.372;2022-08-19T07:52:44;8.50;;;7.60;;
8074;SDS011;4080;42.676;23.372;2022-08-19T07:55:12;10.07;;;7.87;;
8074;SDS011;4080;42.676;23.372;2022-08-19T07:57:39;10.57;;;7.47;;
8074;SDS011;4080;42.676;23.372;2022-08-19T08:00:07;8.90;;;7.20;;
8074;SDS011;4080;42.676;23.372;2022-08-19T08:02:34;11.83;;;7.70;;
8074;SDS011;4080;42.676;23.372;2022-08-19T08:05:01;11.00;;;7.97;;
8074;SDS011;4080;42.676;23.372;2022-08-19T08:07:45;15.00;;;7.53;;
8074;SDS011;4080;42.676;23.372;2022-08-19T08:10:31;12.10;;;7.85;;
8074;SDS011;4080;42.676;23.372;2022-08-19T08:12:59;15.27;;;7.90;;
8074;SDS011;4080;42.676;23.372;2022-08-19T08:15:26;10.88;;;7.40;;
8074;SDS011;4080;42.676;23.372;2022-08-19T08:17:52;16.67;;;8.50;;
8074;SDS011;4080;42.676;23.372;2022-08-19T08:20:19;12.38;;;8.25;;
8074;SDS011;4080;42.676;23.372;2022-08-19T08:22:47;12.38;;;8.10;;
8074;SDS011;4080;42.676;23.372;2022-08-19T08:25:33;11.70;;;8.43;;
8074;SDS011;4080;42.676;23.372;2022-08-19T08:28:02;10.20;;;8.30;;
8074;SDS011;4080;42.676;23.372;2022-08-19T08:30:29;13.40;;;7.53;;
8074;SDS011;4080;42.676;23.372;2022-08-19T08:32:58;8.93;;;8.02;;
8074;SDS011;4080;42.676;23.372;2022-08-19T08:35:25;11.45;;;7.60;;
8074;SDS011;4080;42.676;23.372;2022-08-19T08:37:52;8.25;;;7.32;;
8074;SDS011;4080;42.676;23.372;2022-08-19T08:40:21;10.45;;;7.80;;
8074;SDS011;4080;42.676;23.372;2022-08-19T08:42:55;12.38;;;8.20;;
8074;SDS011;4080;42.676;23.372;2022-08-19T08:45:30;8.63;;;7.38;;
8074;SDS011;4080;42.676;23.372;2022-08-19T08:48:00;8.52;;;7.72;;
8074;SDS011;4080;42.676;23.372;2022-08-19T08:50:37;10.25;;;7.22;;
8074;SDS011;4080;42.676;23.372;2022-08-19T08:53:08;12.02;;;7.32;;
8074;SDS011;4080;42.676;23.372;2022-08-19T08:55:36;10.10;;;8.40;;
8074;SDS011;4080;42.676;23.372;2022-08-19T08:58:07;9.98;;;7.40;;
8074;SDS011;4080;42.676;23.372;2022-08-19T09:00:43;11.27;;;7.53;;
8074;SDS011;4080;42.676;23.372;2022-08-19T09:03:15;10.68;;;7.50;;
8074;SDS011;4080;42.676;23.372;2022-08-19T09:05:51;7.32;;;6.55;;
8074;SDS011;4080;42.676;23.372;2022-08-19T09:08:27;9.55;;;7.18;;
8074;SDS011;4080;42.676;23.372;2022-08-19T09:11:09;8.82;;;7.55;;
8074;SDS011;4080;42.676;23.372;2022-08-19T09:13:44;13.75;;;7.50;;
8074;SDS011;4080;42.676;23.372;2022-08-19T09:16:22;8.45;;;7.65;;
8074;SDS011;4080;42.676;23.372;2022-08-19T09:18:52;7.95;;;7.00;;
8074;SDS011;4080;42.676;23.372;2022-08-19T09:21:22;10.75;;;7.65;;
8074;SDS011;4080;42.676;23.372;2022-08-19T09:23:51;8.68;;;6.88;;
8074;SDS011;4080;42.676;23.372;2022-08-19T09:26:18;7.35;;;5.95;;
8074;SDS011;4080;42.676;23.372;2022-08-19T09:28:51;7.00;;;5.97;;
8074;SDS011;4080;42.676;23.372;2022-08-19T09:31:20;7.53;;;5.38;;
8074;SDS011;4080;42.676;23.372;2022-08-19T09:33:49;6.78;;;5.18;;
8074;SDS011;4080;42.676;23.372;2022-08-19T09:36:18;6.30;;;5.70;;
8074;SDS011;4080;42.676;23.372;2022-08-19T09:38:47;5.60;;;5.05;;
8074;SDS011;4080;42.676;23.372;2022-08-19T09:41:15;6.90;;;5.05;;
8074;SDS011;4080;42.676;23.372;2022-08-19T09:43:44;5.03;;;4.43;;
8074;SDS011;4080;42.676;23.372;2022-08-19T09:46:20;6.15;;;4.70;;
8074;SDS011;4080;42.676;23.372;2022-08-19T09:48:48;5.93;;;4.68;;
8074;SDS011;4080;42.676;23.372;2022-08-19T09:51:17;4.53;;;4.22;;
8074;SDS011;4080;42.676;23.372;2022-08-19T09:53:46;5.10;;;4.60;;
8074;SDS011;4080;42.676;23.372;2022-08-19T09:56:15;6.63;;;4.70;;
8074;SDS011;4080;42.676;23.372;2022-08-19T09:58:42;4.78;;;4.32;;
8074;SDS011;4080;42.676;23.372;2022-08-19T10:01:14;6.63;;;5.05;;
8074;SDS011;4080;42.676;23.372;2022-08-19T10:03:46;6.10;;;4.85;;
8074;SDS011;4080;42.676;23.372;2022-08-19T10:06:15;5.22;;;4.82;;
8074;SDS011;4080;42.676;23.372;2022-08-19T10:08:44;5.60;;;4.53;;
8074;SDS011;4080;42.676;23.372;2022-08-19T10:11:12;7.55;;;4.95;;
8074;SDS011;4080;42.676;23.372;2022-08-19T10:13:41;5.85;;;4.93;;
8074;SDS011;4080;42.676;23.372;2022-08-19T10:16:11;5.22;;;4.70;;
8074;SDS011;4080;42.676;23.372;2022-08-19T10:18:40;6.07;;;5.47;;
8074;SDS011;4080;42.676;23.372;2022-08-19T10:21:09;5.90;;;5.28;;
8074;SDS011;4080;42.676;23.372;2022-08-19T10:23:38;5.18;;;4.78;;
8074;SDS011;4080;42.676;23.372;2022-08-19T10:26:06;5.72;;;4.65;;
8074;SDS011;4080;42.676;23.372;2022-08-19T10:28:33;6.03;;;4.72;;
8074;SDS011;4080;42.676;23.372;2022-08-19T10:31:05;5.90;;;5.40;;
8074;SDS011;4080;42.676;23.372;2022-08-19T10:33:35;5.35;;;4.85;;
8074;SDS011;4080;42.676;23.372;2022-08-19T10:36:03;5.93;;;5.18;;
8074;SDS011;4080;42.676;23.372;2022-08-19T10:38:32;5.95;;;5.40;;
8074;SDS011;4080;42.676;23.372;2022-08-19T10:41:06;8.25;;;5.35;;
8074;SDS011;4080;42.676;23.372;2022-08-19T10:43:34;5.90;;;5.35;;
8074;SDS011;4080;42.676;23.372;2022-08-19T10:46:03;5.57;;;5.10;;
8074;SDS011;4080;42.676;23.372;2022-08-19T10:48:31;6.10;;;4.97;;
8074;SDS011;4080;42.676;23.372;2022-08-19T10:50:59;6.95;;;5.78;;
8074;SDS011;4080;42.676;23.372;2022-08-19T10:53:44;9.85;;;5.28;;
8074;SDS011;4080;42.676;23.372;2022-08-19T10:56:11;5.80;;;5.18;;
8074;SDS011;4080;42.676;23.372;2022-08-19T10:58:55;6.00;;;5.45;;
8074;SDS011;4080;42.676;23.372;2022-08-19T11:01:23;6.15;;;5.50;;
8074;SDS011;4080;42.676;23.372;2022-08-19T11:03:49;7.30;;;5.32;;
8074;SDS011;4080;42.676;23.372;2022-08-19T11:06:19;8.25;;;5.18;;
8074;SDS011;4080;42.676;23.372;2022-08-19T11:08:45;5.53;;;4.80;;
8074;SDS011;4080;42.676;23.372;2022-08-19T11:11:12;5.65;;;5.13;;
8074;SDS011;4080;42.676;23.372;2022-08-19T11:13:40;6.03;;;5.32;;
8074;SDS011;4080;42.676;23.372;2022-08-19T11:16:11;6.63;;;6.03;;
8074;SDS011;4080;42.676;23.372;2022-08-19T11:18:40;6.93;;;6.30;;
8074;SDS011;4080;42.676;23.372;2022-08-19T11:21:12;8.30;;;5.65;;
8074;SDS011;4080;42.676;23.372;2022-08-19T11:23:43;8.30;;;5.70;;
8074;SDS011;4080;42.676;23.372;2022-08-19T11:26:10;6.82;;;6.22;;
8074;SDS011;4080;42.676;23.372;2022-08-19T11:28:37;5.63;;;5.10;;
8074;SDS011;4080;42.676;23.372;2022-08-19T11:31:04;6.55;;;5.95;;
8074;SDS011;4080;42.676;23.372;2022-08-19T11:33:36;8.93;;;5.85;;
8074;SDS011;4080;42.676;23.372;2022-08-19T11:36:03;6.55;;;5.90;;
8074;SDS011;4080;42.676;23.372;2022-08-19T11:38:30;6.10;;;5.57;;
8074;SDS011;4080;42.676;23.372;2022-08-19T11:41:00;8.73;;;5.90;;
8074;SDS011;4080;42.676;23.372;2022-08-19T11:43:28;12.95;;;5.80;;
8074;SDS011;4080;42.676;23.372;2022-08-19T11:45:56;6.18;;;5.68;;
8074;SDS011;4080;42.676;23.372;2022-08-19T11:48:29;6.63;;;5.88;;
8074;SDS011;4080;42.676;23.372;2022-08-19T11:50:57;8.35;;;5.85;;
8074;SDS011;4080;42.676;23.372;2022-08-19T11:53:24;6.90;;;6.20;;
8074;SDS011;4080;42.676;23.372;2022-08-19T11:55:52;6.50;;;5.93;;
8074;SDS011;4080;42.676;23.372;2022-08-19T11:58:22;6.97;;;6.35;;
8074;SDS011;4080;42.676;23.372;2022-08-19T12:00:50;9.50;;;5.90;;
8074;SDS011;4080;42.676;23.372;2022-08-19T12:03:17;6.45;;;5.80;;
8074;SDS011;4080;42.676;23.372;2022-08-19T12:05:44;7.70;;;6.30;;
8074;SDS011;4080;42.676;23.372;2022-08-19T12:08:12;7.55;;;6.20;;
8074;SDS011;4080;42.676;23.372;2022-08-19T12:10:40;6.07;;;5.65;;
8074;SDS011;4080;42.676;23.372;2022-08-19T12:13:07;8.18;;;5.95;;
8074;SDS011;4080;42.676;23.372;2022-08-19T12:15:36;6.50;;;5.82;;
8074;SDS011;4080;42.676;23.372;2022-08-19T12:18:05;6.43;;;5.82;;
8074;SDS011;4080;42.676;23.372;2022-08-19T12:20:34;6.65;;;6.13;;
8074;SDS011;4080;42.676;23.372;2022-08-19T12:23:02;8.15;;;6.38;;
8074;SDS011;4080;42.676;23.372;2022-08-19T12:25:29;6.30;;;5.70;;
8074;SDS011;4080;42.676;23.372;2022-08-19T12:27:56;8.98;;;5.70;;
8074;SDS011;4080;42.676;23.372;2022-08-19T12:30:23;6.47;;;5.97;;
8074;SDS011;4080;42.676;23.372;2022-08-19T12:32:52;6.63;;;6.03;;
8074;SDS011;4080;42.676;23.372;2022-08-19T12:35:19;7.82;;;6.63;;
8074;SDS011;4080;42.676;23.372;2022-08-19T12:37:46;6.60;;;6.00;;
8074;SDS011;4080;42.676;23.372;2022-08-19T12:40:14;6.90;;;6.30;;
8074;SDS011;4080;42.676;23.372;2022-08-19T12:42:42;7.85;;;6.60;;
8074;SDS011;4080;42.676;23.372;2022-08-19T12:45:11;11.95;;;6.70;;
8074;SDS011;4080;42.676;23.372;2022-08-19T12:47:39;6.22;;;5.72;;
8074;SDS011;4080;42.676;23.372;2022-08-19T12:50:08;7.28;;;6.20;;
8074;SDS011;4080;42.676;23.372;2022-08-19T12:52:35;6.72;;;6.03;;
8074;SDS011;4080;42.676;23.372;2022-08-19T12:55:03;10.18;;;6.10;;
8074;SDS011;4080;42.676;23.372;2022-08-19T12:57:32;6.70;;;6.10;;
8074;SDS011;4080;42.676;23.372;2022-08-19T13:00:02;6.80;;;6.20;;
8074;SDS011;4080;42.676;23.372;2022-08-19T13:05:00;9.60;;;6.47;;
8074;SDS011;4080;42.676;23.372;2022-08-19T13:07:28;10.35;;;6.10;;
8074;SDS011;4080;42.676;23.372;2022-08-19T13:09:56;9.93;;;6.53;;
8074;SDS011;4080;42.676;23.372;2022-08-19T13:12:23;12.23;;;9.70;;
8074;SDS011;4080;42.676;23.372;2022-08-19T13:14:51;8.52;;;7.57;;
8074;SDS011;4080;42.676;23.372;2022-08-19T13:17:19;10.68;;;9.68;;
8074;SDS011;4080;42.676;23.372;2022-08-19T13:19:46;8.27;;;7.45;;
8074;SDS011;4080;42.676;23.372;2022-08-19T13:22:13;7.78;;;6.57;;
8074;SDS011;4080;42.676;23.372;2022-08-19T13:24:42;6.47;;;5.90;;
8074;SDS011;4080;42.676;23.372;2022-08-19T13:27:09;7.03;;;6.32;;
8074;SDS011;4080;42.676;23.372;2022-08-19T13:29:35;12.38;;;6.65;;
8074;SDS011;4080;42.676;23.372;2022-08-19T13:32:19;10.27;;;6.53;;
8074;SDS011;4080;42.676;23.372;2022-08-19T13:35:04;8.55;;;6.43;;
8074;SDS011;4080;42.676;23.372;2022-08-19T13:37:31;7.78;;;6.63;;
8074;SDS011;4080;42.676;23.372;2022-08-19T13:40:10;9.10;;;6.90;;
8074;SDS011;4080;42.676;23.372;2022-08-19T13:42:40;7.70;;;6.22;;
8074;SDS011;4080;42.676;23.372;2022-08-19T13:45:08;9.15;;;6.80;;
8074;SDS011;4080;42.676;23.372;2022-08-19T13:47:35;6.47;;;5.97;;
8074;SDS011;4080;42.676;23.372;2022-08-19T13:50:04;8.63;;;6.78;;
8074;SDS011;4080;42.676;23.372;2022-08-19T13:52:31;6.90;;;6.30;;
8074;SDS011;4080;42.676;23.372;2022-08-19T13:54:58;11.02;;;6.43;;
8074;SDS011;4080;42.676;23.372;2022-08-19T13:57:26;7.65;;;6.53;;
8074;SDS011;4080;42.676;23.372;2022-08-19T13:59:53;7.32;;;6.60;;
8074;SDS011;4080;42.676;23.372;2022-08-19T14:02:20;7.47;;;6.85;;
8074;SDS011;4080;42.676;23.372;2022-08-19T14:04:47;7.25;;;6.55;;
8074;SDS011;4080;42.676;23.372;2022-08-19T14:07:13;6.90;;;6.10;;
8074;SDS011;4080;42.676;23.372;2022-08-19T14:09:40;7.38;;;6.32;;
8074;SDS011;4080;42.676;23.372;2022-08-19T14:12:08;6.78;;;6.15;;
8074;SDS011;4080;42.676;23.372;2022-08-19T14:14:37;6.60;;;5.97;;
8074;SDS011;4080;42.676;23.372;2022-08-19T14:17:05;12.93;;;6.35;;
8074;SDS011;4080;42.676;23.372;2022-08-19T14:19:32;10.75;;;6.65;;
8074;SDS011;4080;42.676;23.372;2022-08-19T14:21:59;6.97;;;5.90;;
8074;SDS011;4080;42.676;23.372;2022-08-19T14:24:26;9.45;;;6.43;;
8074;SDS011;4080;42.676;23.372;2022-08-19T14:26:53;10.88;;;6.45;;
8074;SDS011;4080;42.676;23.372;2022-08-19T14:29:20;9.68;;;6.60;;
8074;SDS011;4080;42.676;23.372;2022-08-19T14:31:49;7.65;;;6.40;;
8074;SDS011;4080;42.676;23.372;2022-08-19T14:34:16;7.72;;;6.57;;
8074;SDS011;4080;42.676;23.372;2022-08-19T14:36:42;11.98;;;6.60;;
8074;SDS011;4080;42.676;23.372;2022-08-19T14:39:10;8.25;;;6.50;;
8074;SDS011;4080;42.676;23.372;2022-08-19T14:41:39;6.90;;;6.20;;
8074;SDS011;4080;42.676;23.372;2022-08-19T14:44:10;6.78;;;6.18;;
8074;SDS011;4080;42.676;23.372;2022-08-19T14:46:38;6.95;;;6.10;;
8074;SDS011;4080;42.676;23.372;2022-08-19T14:49:06;7.95;;;7.15;;
8074;SDS011;4080;42.676;23.372;2022-08-19T14:51:33;13.95;;;6.55;;
8074;SDS011;4080;42.676;23.372;2022-08-19T14:54:00;8.65;;;6.45;;
8074;SDS011;4080;42.676;23.372;2022-08-19T14:56:27;10.13;;;5.88;;
8074;SDS011;4080;42.676;23.372;2022-08-19T14:58:55;8.50;;;5.90;;
8074;SDS011;4080;42.676;23.372;2022-08-19T15:01:25;10.18;;;6.40;;
8074;SDS011;4080;42.676;23.372;2022-08-19T15:03:53;10.80;;;6.40;;
8074;SDS011;4080;42.676;23.372;2022-08-19T15:06:21;8.82;;;6.30;;
8074;SDS011;4080;42.676;23.372;2022-08-19T15:08:48;9.73;;;6.47;;
8074;SDS011;4080;42.676;23.372;2022-08-19T15:11:17;10.43;;;6.35;;